sensor_id;sensor_type;location;lat;lon;timestamp;temperature;humidity
67165;SHT31;54093;50.014;19.984;2024-01-30T00:08:08;-0.90;80.29
67165;SHT31;54093;50.014;19.984;2024-01-30T00:17:29;-0.97;80.83
67165;SHT31;54093;50.014;19.984;2024-01-30T00:26:50;-1.07;81.50
67165;SHT31;54093;50.014;19.984;2024-01-30T00:36:12;-1.22;80.74
67165;SHT31;54093;50.014;19.984;2024-01-30T00:45:33;-1.21;80.82
67165;SHT31;54093;50.014;19.984;2024-01-30T00:54:54;-1.18;80.41
67165;SHT31;54093;50.014;19.984;2024-01-30T01:04:16;-1.37;80.71
67165;SHT31;54093;50.014;19.984;2024-01-30T01:13:38;-1.46;80.61
67165;SHT31;54093;50.014;19.984;2024-01-30T01:22:59;-1.55;80.98
67165;SHT31;54093;50.014;19.984;2024-01-30T01:32:20;-1.48;80.83
67165;SHT31;54093;50.014;19.984;2024-01-30T01:41:41;-1.46;81.30
67165;SHT31;54093;50.014;19.984;2024-01-30T01:51:02;-1.52;81.82
67165;SHT31;54093;50.014;19.984;2024-01-30T02:00:24;-1.56;80.55
67165;SHT31;54093;50.014;19.984;2024-01-30T02:09:45;-1.69;80.70
67165;SHT31;54093;50.014;19.984;2024-01-30T02:19:06;-1.75;81.70
67165;SHT31;54093;50.014;19.984;2024-01-30T02:28:28;-1.90;81.45
67165;SHT31;54093;50.014;19.984;2024-01-30T02:37:49;-1.93;81.54
67165;SHT31;54093;50.014;19.984;2024-01-30T02:47:10;-1.90;81.11
67165;SHT31;54093;50.014;19.984;2024-01-30T02:56:31;-1.87;81.17
67165;SHT31;54093;50.014;19.984;2024-01-30T03:05:52;-1.96;80.77
67165;SHT31;54093;50.014;19.984;2024-01-30T03:15:13;-1.97;82.01
67165;SHT31;54093;50.014;19.984;2024-01-30T03:24:34;-2.08;80.47
67165;SHT31;54093;50.014;19.984;2024-01-30T03:33:55;-2.08;80.73
67165;SHT31;54093;50.014;19.984;2024-01-30T03:43:16;-1.98;82.39
67165;SHT31;54093;50.014;19.984;2024-01-30T03:52:37;-2.23;80.43
67165;SHT31;54093;50.014;19.984;2024-01-30T04:01:58;-2.25;80.68
67165;SHT31;54093;50.014;19.984;2024-01-30T04:11:19;-2.33;81.33
67165;SHT31;54093;50.014;19.984;2024-01-30T04:20:43;-2.45;81.70
67165;SHT31;54093;50.014;19.984;2024-01-30T04:30:04;-2.44;81.38
67165;SHT31;54093;50.014;19.984;2024-01-30T04:39:25;-2.37;82.01
67165;SHT31;54093;50.014;19.984;2024-01-30T04:48:46;-2.37;82.45
67165;SHT31;54093;50.014;19.984;2024-01-30T04:58:07;-2.31;82.13
67165;SHT31;54093;50.014;19.984;2024-01-30T05:07:28;-2.30;82.94
67165;SHT31;54093;50.014;19.984;2024-01-30T05:16:49;-2.45;81.46
67165;SHT31;54093;50.014;19.984;2024-01-30T05:26:10;-2.65;80.45
67165;SHT31;54093;50.014;19.984;2024-01-30T05:35:31;-2.64;81.97
67165;SHT31;54093;50.014;19.984;2024-01-30T05:44:52;-2.75;79.60
67165;SHT31;54093;50.014;19.984;2024-01-30T05:54:13;-2.93;79.33
67165;SHT31;54093;50.014;19.984;2024-01-30T06:03:34;-2.97;79.62
67165;SHT31;54093;50.014;19.984;2024-01-30T06:12:55;-2.99;80.41
67165;SHT31;54093;50.014;19.984;2024-01-30T06:22:16;-2.72;83.20
67165;SHT31;54093;50.014;19.984;2024-01-30T06:31:41;-2.93;81.15
67165;SHT31;54093;50.014;19.984;2024-01-30T06:41:04;-3.03;78.99
67165;SHT31;54093;50.014;19.984;2024-01-30T06:50:26;-3.00;81.28
67165;SHT31;54093;50.014;19.984;2024-01-30T06:59:48;-3.04;80.63
67165;SHT31;54093;50.014;19.984;2024-01-30T07:09:10;-2.87;81.85
67165;SHT31;54093;50.014;19.984;2024-01-30T07:18:32;-2.84;81.82
67165;SHT31;54093;50.014;19.984;2024-01-30T07:27:56;-2.65;83.05
67165;SHT31;54093;50.014;19.984;2024-01-30T07:37:17;-2.45;82.82
67165;SHT31;54093;50.014;19.984;2024-01-30T07:46:39;-2.25;83.11
67165;SHT31;54093;50.014;19.984;2024-01-30T07:56:00;-1.93;83.16
67165;SHT31;54093;50.014;19.984;2024-01-30T08:05:22;-1.48;84.31
67165;SHT31;54093;50.014;19.984;2024-01-30T08:14:43;-0.98;86.68
67165;SHT31;54093;50.014;19.984;2024-01-30T08:24:05;-0.60;87.65
67165;SHT31;54093;50.014;19.984;2024-01-30T08:33:26;-0.48;86.05
67165;SHT31;54093;50.014;19.984;2024-01-30T08:42:47;-0.36;86.32
67165;SHT31;54093;50.014;19.984;2024-01-30T08:52:08;0.07;87.28
67165;SHT31;54093;50.014;19.984;2024-01-30T09:01:29;0.53;87.62
67165;SHT31;54093;50.014;19.984;2024-01-30T09:10:51;0.93;87.19
67165;SHT31;54093;50.014;19.984;2024-01-30T09:20:12;1.06;86.82
67165;SHT31;54093;50.014;19.984;2024-01-30T09:29:33;1.44;86.81
67165;SHT31;54093;50.014;19.984;2024-01-30T09:38:57;1.58;85.04
67165;SHT31;54093;50.014;19.984;2024-01-30T09:48:18;1.89;83.83
67165;SHT31;54093;50.014;19.984;2024-01-30T09:57:41;2.09;82.55
67165;SHT31;54093;50.014;19.984;2024-01-30T10:07:03;2.26;81.24
67165;SHT31;54093;50.014;19.984;2024-01-30T10:16:26;2.40;79.35
67165;SHT31;54093;50.014;19.984;2024-01-30T10:25:51;2.57;78.78
67165;SHT31;54093;50.014;19.984;2024-01-30T10:35:13;2.90;75.91
67165;SHT31;54093;50.014;19.984;2024-01-30T10:44:56;3.15;73.74
67165;SHT31;54093;50.014;19.984;2024-01-30T10:54:20;3.36;69.72
67165;SHT31;54093;50.014;19.984;2024-01-30T11:03:43;3.44;70.01
67165;SHT31;54093;50.014;19.984;2024-01-30T11:13:12;3.69;69.62
67165;SHT31;54093;50.014;19.984;2024-01-30T11:22:35;4.01;67.35
67165;SHT31;54093;50.014;19.984;2024-01-30T11:31:58;4.34;66.48
67165;SHT31;54093;50.014;19.984;2024-01-30T11:41:21;4.65;66.11
67165;SHT31;54093;50.014;19.984;2024-01-30T11:50:43;4.96;64.86
67165;SHT31;54093;50.014;19.984;2024-01-30T12:00:06;5.30;64.49
67165;SHT31;54093;50.014;19.984;2024-01-30T12:09:32;5.49;63.55
67165;SHT31;54093;50.014;19.984;2024-01-30T12:19:00;5.68;63.48
67165;SHT31;54093;50.014;19.984;2024-01-30T12:28:22;5.87;62.80
67165;SHT31;54093;50.014;19.984;2024-01-30T12:37:44;6.11;61.94
67165;SHT31;54093;50.014;19.984;2024-01-30T12:47:05;6.49;61.23
67165;SHT31;54093;50.014;19.984;2024-01-30T12:56:26;6.81;60.42
67165;SHT31;54093;50.014;19.984;2024-01-30T13:05:47;7.27;59.89
67165;SHT31;54093;50.014;19.984;2024-01-30T13:15:08;8.10;58.15
67165;SHT31;54093;50.014;19.984;2024-01-30T13:24:29;8.91;57.13
67165;SHT31;54093;50.014;19.984;2024-01-30T13:33:50;9.46;52.90
67165;SHT31;54093;50.014;19.984;2024-01-30T13:43:12;10.11;52.20
67165;SHT31;54093;50.014;19.984;2024-01-30T13:52:33;9.87;52.19
67165;SHT31;54093;50.014;19.984;2024-01-30T14:01:54;9.30;54.51
67165;SHT31;54093;50.014;19.984;2024-01-30T14:11:15;9.39;54.42
67165;SHT31;54093;50.014;19.984;2024-01-30T14:20:36;8.75;56.44
67165;SHT31;54093;50.014;19.984;2024-01-30T14:29:57;8.20;57.90
67165;SHT31;54093;50.014;19.984;2024-01-30T14:39:19;7.62;58.32
67165;SHT31;54093;50.014;19.984;2024-01-30T14:48:40;7.10;60.49
67165;SHT31;54093;50.014;19.984;2024-01-30T14:58:01;6.49;63.26
67165;SHT31;54093;50.014;19.984;2024-01-30T15:07:23;6.02;64.05
67165;SHT31;54093;50.014;19.984;2024-01-30T15:16:46;5.60;64.77
67165;SHT31;54093;50.014;19.984;2024-01-30T15:26:10;5.20;66.23
67165;SHT31;54093;50.014;19.984;2024-01-30T15:35:32;4.72;67.99
67165;SHT31;54093;50.014;19.984;2024-01-30T15:44:53;4.44;68.46
67165;SHT31;54093;50.014;19.984;2024-01-30T15:54:14;4.12;69.72
67165;SHT31;54093;50.014;19.984;2024-01-30T16:03:35;3.90;70.40
67165;SHT31;54093;50.014;19.984;2024-01-30T16:12:57;3.63;71.47
67165;SHT31;54093;50.014;19.984;2024-01-30T16:22:19;3.38;72.00
67165;SHT31;54093;50.014;19.984;2024-01-30T16:31:41;3.15;72.85
67165;SHT31;54093;50.014;19.984;2024-01-30T16:41:02;2.91;73.41
67165;SHT31;54093;50.014;19.984;2024-01-30T16:50:23;2.72;73.75
67165;SHT31;54093;50.014;19.984;2024-01-30T16:59:46;2.52;73.94
67165;SHT31;54093;50.014;19.984;2024-01-30T17:09:07;2.37;74.45
67165;SHT31;54093;50.014;19.984;2024-01-30T17:18:30;2.36;73.64
67165;SHT31;54093;50.014;19.984;2024-01-30T17:27:53;2.18;74.37
67165;SHT31;54093;50.014;19.984;2024-01-30T17:37:15;2.11;74.80
67165;SHT31;54093;50.014;19.984;2024-01-30T17:46:37;2.08;75.19
67165;SHT31;54093;50.014;19.984;2024-01-30T17:56:00;2.04;75.37
67165;SHT31;54093;50.014;19.984;2024-01-30T18:05:27;1.82;75.38
67165;SHT31;54093;50.014;19.984;2024-01-30T18:14:50;1.71;76.08
67165;SHT31;54093;50.014;19.984;2024-01-30T18:24:11;1.63;75.94
67165;SHT31;54093;50.014;19.984;2024-01-30T18:33:34;1.48;76.35
67165;SHT31;54093;50.014;19.984;2024-01-30T18:42:55;1.35;77.01
67165;SHT31;54093;50.014;19.984;2024-01-30T18:52:17;1.37;76.99
67165;SHT31;54093;50.014;19.984;2024-01-30T19:01:38;1.36;76.60
67165;SHT31;54093;50.014;19.984;2024-01-30T19:11:01;1.37;76.19
67165;SHT31;54093;50.014;19.984;2024-01-30T19:20:23;1.36;75.75
67165;SHT31;54093;50.014;19.984;2024-01-30T19:29:45;1.29;75.72
67165;SHT31;54093;50.014;19.984;2024-01-30T19:39:06;1.16;75.80
67165;SHT31;54093;50.014;19.984;2024-01-30T19:48:35;0.96;76.14
67165;SHT31;54093;50.014;19.984;2024-01-30T19:57:56;1.09;74.61
67165;SHT31;54093;50.014;19.984;2024-01-30T20:07:17;1.09;74.41
67165;SHT31;54093;50.014;19.984;2024-01-30T20:16:42;1.13;74.24
67165;SHT31;54093;50.014;19.984;2024-01-30T20:26:04;0.84;74.88
67165;SHT31;54093;50.014;19.984;2024-01-30T20:35:26;0.78;74.95
67165;SHT31;54093;50.014;19.984;2024-01-30T20:44:47;0.74;74.78
67165;SHT31;54093;50.014;19.984;2024-01-30T20:54:08;0.91;74.29
67165;SHT31;54093;50.014;19.984;2024-01-30T21:03:30;1.06;73.30
67165;SHT31;54093;50.014;19.984;2024-01-30T21:12:52;1.06;73.40
67165;SHT31;54093;50.014;19.984;2024-01-30T21:22:15;1.06;73.37
67165;SHT31;54093;50.014;19.984;2024-01-30T21:31:37;0.96;73.67
67165;SHT31;54093;50.014;19.984;2024-01-30T21:40:59;0.92;74.09
67165;SHT31;54093;50.014;19.984;2024-01-30T21:50:20;0.96;72.84
67165;SHT31;54093;50.014;19.984;2024-01-30T21:59:42;0.99;72.40
67165;SHT31;54093;50.014;19.984;2024-01-30T22:09:04;1.00;72.10
67165;SHT31;54093;50.014;19.984;2024-01-30T22:18:27;0.98;72.08
67165;SHT31;54093;50.014;19.984;2024-01-30T22:27:48;0.93;72.15
67165;SHT31;54093;50.014;19.984;2024-01-30T22:37:10;0.95;71.97
67165;SHT31;54093;50.014;19.984;2024-01-30T22:46:31;0.92;71.87
67165;SHT31;54093;50.014;19.984;2024-01-30T22:55:52;0.87;71.93
67165;SHT31;54093;50.014;19.984;2024-01-30T23:05:14;0.89;71.69
67165;SHT31;54093;50.014;19.984;2024-01-30T23:14:36;0.93;71.53
67165;SHT31;54093;50.014;19.984;2024-01-30T23:23:59;0.88;71.41
67165;SHT31;54093;50.014;19.984;2024-01-30T23:33:21;0.69;71.99
67165;SHT31;54093;50.014;19.984;2024-01-30T23:42:42;0.71;72.05
67165;SHT31;54093;50.014;19.984;2024-01-30T23:52:04;0.74;72.05
